sensor_id;sensor_type;location;lat;lon;timestamp;temperature;humidity
44431;DHT22;30135;47.866;-4.222;2023-07-29T00:01:05;19.60;99.90
44431;DHT22;30135;47.866;-4.222;2023-07-29T00:03:31;19.60;99.90
44431;DHT22;30135;47.866;-4.222;2023-07-29T00:05:57;19.50;99.90
44431;DHT22;30135;47.866;-4.222;2023-07-29T00:08:23;19.60;99.90
44431;DHT22;30135;47.866;-4.222;2023-07-29T00:10:49;19.60;99.90
44431;DHT22;30135;47.866;-4.222;2023-07-29T00:13:15;19.50;99.90
44431;DHT22;30135;47.866;-4.222;2023-07-29T00:15:41;19.60;99.90
44431;DHT22;30135;47.866;-4.222;2023-07-29T00:18:07;19.50;99.90
44431;DHT22;30135;47.866;-4.222;2023-07-29T00:20:33;19.50;99.90
44431;DHT22;30135;47.866;-4.222;2023-07-29T00:22:59;19.60;99.90
44431;DHT22;30135;47.866;-4.222;2023-07-29T00:25:27;19.50;99.90
44431;DHT22;30135;47.866;-4.222;2023-07-29T00:27:56;19.50;99.90
44431;DHT22;30135;47.866;-4.222;2023-07-29T00:30:22;19.50;99.90
44431;DHT22;30135;47.866;-4.222;2023-07-29T00:32:48;19.50;99.90
44431;DHT22;30135;47.866;-4.222;2023-07-29T00:35:14;19.50;99.90
44431;DHT22;30135;47.866;-4.222;2023-07-29T00:37:41;19.60;99.90
44431;DHT22;30135;47.866;-4.222;2023-07-29T00:40:19;19.50;99.90
44431;DHT22;30135;47.866;-4.222;2023-07-29T00:42:46;19.50;99.90
44431;DHT22;30135;47.866;-4.222;2023-07-29T00:45:12;19.50;99.90
44431;DHT22;30135;47.866;-4.222;2023-07-29T00:47:39;19.50;99.90
44431;DHT22;30135;47.866;-4.222;2023-07-29T00:50:06;19.50;99.90
44431;DHT22;30135;47.866;-4.222;2023-07-29T00:52:33;19.50;99.90
44431;DHT22;30135;47.866;-4.222;2023-07-29T00:54:59;19.50;99.90
44431;DHT22;30135;47.866;-4.222;2023-07-29T00:57:25;19.50;99.90
44431;DHT22;30135;47.866;-4.222;2023-07-29T00:59:52;19.50;99.90
44431;DHT22;30135;47.866;-4.222;2023-07-29T01:02:18;19.50;99.90
44431;DHT22;30135;47.866;-4.222;2023-07-29T01:04:44;19.50;99.90
44431;DHT22;30135;47.866;-4.222;2023-07-29T01:07:23;19.50;99.90
44431;DHT22;30135;47.866;-4.222;2023-07-29T01:18:31;19.50;99.90
44431;DHT22;30135;47.866;-4.222;2023-07-29T01:21:04;19.50;99.90
44431;DHT22;30135;47.866;-4.222;2023-07-29T01:23:34;19.50;99.90
44431;DHT22;30135;47.866;-4.222;2023-07-29T01:26:02;19.50;99.90
44431;DHT22;30135;47.866;-4.222;2023-07-29T01:28:29;19.50;99.90
44431;DHT22;30135;47.866;-4.222;2023-07-29T01:31:16;19.50;99.90
44431;DHT22;30135;47.866;-4.222;2023-07-29T01:33:57;19.40;99.90
44431;DHT22;30135;47.866;-4.222;2023-07-29T01:36:28;19.40;99.90
44431;DHT22;30135;47.866;-4.222;2023-07-29T01:38:57;19.40;99.90
44431;DHT22;30135;47.866;-4.222;2023-07-29T01:41:25;19.40;99.90
44431;DHT22;30135;47.866;-4.222;2023-07-29T01:43:52;19.40;99.90
44431;DHT22;30135;47.866;-4.222;2023-07-29T01:46:19;19.40;99.90
44431;DHT22;30135;47.866;-4.222;2023-07-29T01:48:45;19.40;99.90
44431;DHT22;30135;47.866;-4.222;2023-07-29T01:51:12;19.40;99.90
44431;DHT22;30135;47.866;-4.222;2023-07-29T01:53:38;19.40;99.90
44431;DHT22;30135;47.866;-4.222;2023-07-29T01:56:04;19.40;99.90
44431;DHT22;30135;47.866;-4.222;2023-07-29T01:58:30;19.40;99.90
44431;DHT22;30135;47.866;-4.222;2023-07-29T02:00:56;19.40;99.90
44431;DHT22;30135;47.866;-4.222;2023-07-29T02:03:22;19.40;99.90
44431;DHT22;30135;47.866;-4.222;2023-07-29T02:05:48;19.40;99.90
44431;DHT22;30135;47.866;-4.222;2023-07-29T02:08:13;19.40;99.90
44431;DHT22;30135;47.866;-4.222;2023-07-29T02:10:39;19.40;99.90
44431;DHT22;30135;47.866;-4.222;2023-07-29T02:13:05;19.40;99.90
44431;DHT22;30135;47.866;-4.222;2023-07-29T02:15:31;19.40;99.90
44431;DHT22;30135;47.866;-4.222;2023-07-29T02:18:00;19.30;99.90
44431;DHT22;30135;47.866;-4.222;2023-07-29T02:20:29;19.40;99.90
44431;DHT22;30135;47.866;-4.222;2023-07-29T02:22:55;19.30;99.90
44431;DHT22;30135;47.866;-4.222;2023-07-29T02:25:21;19.40;99.90
44431;DHT22;30135;47.866;-4.222;2023-07-29T02:27:47;19.40;99.90
44431;DHT22;30135;47.866;-4.222;2023-07-29T02:30:13;19.40;99.90
44431;DHT22;30135;47.866;-4.222;2023-07-29T02:32:39;19.40;99.90
44431;DHT22;30135;47.866;-4.222;2023-07-29T02:35:05;19.30;99.90
44431;DHT22;30135;47.866;-4.222;2023-07-29T02:37:31;19.40;99.90
44431;DHT22;30135;47.866;-4.222;2023-07-29T02:39:57;19.30;99.90
44431;DHT22;30135;47.866;-4.222;2023-07-29T02:42:23;19.30;99.90
44431;DHT22;30135;47.866;-4.222;2023-07-29T02:44:49;19.30;99.90
44431;DHT22;30135;47.866;-4.222;2023-07-29T02:47:15;19.30;99.90
44431;DHT22;30135;47.866;-4.222;2023-07-29T02:49:41;19.30;99.90
44431;DHT22;30135;47.866;-4.222;2023-07-29T02:52:07;19.30;99.90
44431;DHT22;30135;47.866;-4.222;2023-07-29T02:54:33;19.20;99.90
44431;DHT22;30135;47.866;-4.222;2023-07-29T02:56:59;19.30;99.90
44431;DHT22;30135;47.866;-4.222;2023-07-29T02:59:26;19.20;99.90
44431;DHT22;30135;47.866;-4.222;2023-07-29T03:01:52;19.20;99.90
44431;DHT22;30135;47.866;-4.222;2023-07-29T03:04:19;19.20;99.90
44431;DHT22;30135;47.866;-4.222;2023-07-29T03:06:45;19.20;99.90
44431;DHT22;30135;47.866;-4.222;2023-07-29T03:09:13;19.10;99.90
44431;DHT22;30135;47.866;-4.222;2023-07-29T03:11:39;19.10;99.90
44431;DHT22;30135;47.866;-4.222;2023-07-29T03:14:05;19.10;99.90
44431;DHT22;30135;47.866;-4.222;2023-07-29T03:16:31;19.10;99.90
44431;DHT22;30135;47.866;-4.222;2023-07-29T03:18:57;19.00;99.90
44431;DHT22;30135;47.866;-4.222;2023-07-29T03:21:25;19.00;99.90
44431;DHT22;30135;47.866;-4.222;2023-07-29T03:23:58;19.00;99.90
44431;DHT22;30135;47.866;-4.222;2023-07-29T03:26:24;18.90;99.90
44431;DHT22;30135;47.866;-4.222;2023-07-29T03:28:50;18.90;99.90
44431;DHT22;30135;47.866;-4.222;2023-07-29T03:31:16;18.90;99.90
44431;DHT22;30135;47.866;-4.222;2023-07-29T03:33:42;18.90;99.90
44431;DHT22;30135;47.866;-4.222;2023-07-29T03:36:08;18.80;99.90
44431;DHT22;30135;47.866;-4.222;2023-07-29T03:38:35;18.80;99.90
44431;DHT22;30135;47.866;-4.222;2023-07-29T03:41:06;18.80;99.90
44431;DHT22;30135;47.866;-4.222;2023-07-29T03:43:34;18.80;99.90
44431;DHT22;30135;47.866;-4.222;2023-07-29T03:46:00;18.80;99.90
44431;DHT22;30135;47.866;-4.222;2023-07-29T03:48:26;18.70;99.90
44431;DHT22;30135;47.866;-4.222;2023-07-29T03:50:52;18.70;99.90
44431;DHT22;30135;47.866;-4.222;2023-07-29T03:53:18;18.70;99.90
44431;DHT22;30135;47.866;-4.222;2023-07-29T03:55:44;18.70;99.90
44431;DHT22;30135;47.866;-4.222;2023-07-29T03:58:10;18.70;99.90
44431;DHT22;30135;47.866;-4.222;2023-07-29T04:00:37;18.70;99.90
44431;DHT22;30135;47.866;-4.222;2023-07-29T04:03:03;18.70;99.90
44431;DHT22;30135;47.866;-4.222;2023-07-29T04:05:29;18.70;99.90
44431;DHT22;30135;47.866;-4.222;2023-07-29T04:07:55;18.70;99.90
44431;DHT22;30135;47.866;-4.222;2023-07-29T04:10:21;18.60;99.90
44431;DHT22;30135;47.866;-4.222;2023-07-29T04:12:47;18.60;99.90
44431;DHT22;30135;47.866;-4.222;2023-07-29T04:15:13;18.60;99.90
44431;DHT22;30135;47.866;-4.222;2023-07-29T04:17:39;18.60;99.90
44431;DHT22;30135;47.866;-4.222;2023-07-29T04:20:05;18.60;99.90
44431;DHT22;30135;47.866;-4.222;2023-07-29T04:22:31;18.50;99.90
44431;DHT22;30135;47.866;-4.222;2023-07-29T04:24:57;18.50;99.90
44431;DHT22;30135;47.866;-4.222;2023-07-29T04:27:23;18.50;99.90
44431;DHT22;30135;47.866;-4.222;2023-07-29T04:29:49;18.50;99.90
44431;DHT22;30135;47.866;-4.222;2023-07-29T04:32:15;18.50;99.90
44431;DHT22;30135;47.866;-4.222;2023-07-29T04:34:42;18.40;99.90
44431;DHT22;30135;47.866;-4.222;2023-07-29T04:37:08;18.40;99.90
44431;DHT22;30135;47.866;-4.222;2023-07-29T04:39:34;18.40;99.90
44431;DHT22;30135;47.866;-4.222;2023-07-29T04:42:00;18.40;99.90
44431;DHT22;30135;47.866;-4.222;2023-07-29T04:44:29;18.40;99.90
44431;DHT22;30135;47.866;-4.222;2023-07-29T04:46:55;18.40;99.90
44431;DHT22;30135;47.866;-4.222;2023-07-29T04:49:21;18.40;99.90
44431;DHT22;30135;47.866;-4.222;2023-07-29T04:51:47;18.40;99.90
44431;DHT22;30135;47.866;-4.222;2023-07-29T04:54:13;18.30;99.90
44431;DHT22;30135;47.866;-4.222;2023-07-29T04:56:39;18.30;99.90
44431;DHT22;30135;47.866;-4.222;2023-07-29T04:59:05;18.30;99.90
44431;DHT22;30135;47.866;-4.222;2023-07-29T05:01:33;18.30;99.90
44431;DHT22;30135;47.866;-4.222;2023-07-29T05:03:59;18.30;99.90
44431;DHT22;30135;47.866;-4.222;2023-07-29T05:06:27;18.30;99.90
44431;DHT22;30135;47.866;-4.222;2023-07-29T05:08:53;18.20;99.90
44431;DHT22;30135;47.866;-4.222;2023-07-29T05:11:19;18.30;99.90
44431;DHT22;30135;47.866;-4.222;2023-07-29T05:13:45;18.20;99.90
44431;DHT22;30135;47.866;-4.222;2023-07-29T05:16:11;18.20;99.90
44431;DHT22;30135;47.866;-4.222;2023-07-29T05:18:37;18.20;99.90
44431;DHT22;30135;47.866;-4.222;2023-07-29T05:21:03;18.20;99.90
44431;DHT22;30135;47.866;-4.222;2023-07-29T05:23:29;18.20;99.90
44431;DHT22;30135;47.866;-4.222;2023-07-29T05:25:55;18.20;99.90
44431;DHT22;30135;47.866;-4.222;2023-07-29T05:28:20;18.20;99.90
44431;DHT22;30135;47.866;-4.222;2023-07-29T05:30:46;18.10;99.90
44431;DHT22;30135;47.866;-4.222;2023-07-29T05:33:12;18.10;99.90
44431;DHT22;30135;47.866;-4.222;2023-07-29T05:35:38;18.10;99.90
44431;DHT22;30135;47.866;-4.222;2023-07-29T05:38:04;18.10;99.90
44431;DHT22;30135;47.866;-4.222;2023-07-29T05:40:33;18.10;99.90
44431;DHT22;30135;47.866;-4.222;2023-07-29T05:42:59;18.10;99.90
44431;DHT22;30135;47.866;-4.222;2023-07-29T05:45:25;18.10;99.90
44431;DHT22;30135;47.866;-4.222;2023-07-29T05:47:51;18.10;99.90
44431;DHT22;30135;47.866;-4.222;2023-07-29T05:50:17;18.10;99.90
44431;DHT22;30135;47.866;-4.222;2023-07-29T05:52:43;18.10;99.90
44431;DHT22;30135;47.866;-4.222;2023-07-29T05:55:09;18.10;99.90
44431;DHT22;30135;47.866;-4.222;2023-07-29T05:57:50;18.20;99.90
44431;DHT22;30135;47.866;-4.222;2023-07-29T06:00:23;18.10;99.90
44431;DHT22;30135;47.866;-4.222;2023-07-29T06:02:49;18.10;99.90
44431;DHT22;30135;47.866;-4.222;2023-07-29T06:05:15;18.10;99.90
44431;DHT22;30135;47.866;-4.222;2023-07-29T06:07:47;18.10;99.90
44431;DHT22;30135;47.866;-4.222;2023-07-29T06:10:15;18.10;99.90
44431;DHT22;30135;47.866;-4.222;2023-07-29T06:12:45;18.10;99.90
44431;DHT22;30135;47.866;-4.222;2023-07-29T06:15:11;18.20;99.90
44431;DHT22;30135;47.866;-4.222;2023-07-29T06:17:38;18.20;99.90
44431;DHT22;30135;47.866;-4.222;2023-07-29T06:20:04;18.20;99.90
44431;DHT22;30135;47.866;-4.222;2023-07-29T06:22:31;18.20;99.90
44431;DHT22;30135;47.866;-4.222;2023-07-29T06:24:57;18.20;99.90
44431;DHT22;30135;47.866;-4.222;2023-07-29T06:27:24;18.30;99.90
44431;DHT22;30135;47.866;-4.222;2023-07-29T06:29:51;18.20;99.90
44431;DHT22;30135;47.866;-4.222;2023-07-29T06:32:20;18.30;99.90
44431;DHT22;30135;47.866;-4.222;2023-07-29T06:34:45;18.20;99.90
44431;DHT22;30135;47.866;-4.222;2023-07-29T06:37:11;18.30;99.90
44431;DHT22;30135;47.866;-4.222;2023-07-29T06:39:37;18.30;99.90
44431;DHT22;30135;47.866;-4.222;2023-07-29T06:42:03;18.30;99.90
44431;DHT22;30135;47.866;-4.222;2023-07-29T06:44:29;18.30;99.90
44431;DHT22;30135;47.866;-4.222;2023-07-29T06:46:57;18.30;99.90
44431;DHT22;30135;47.866;-4.222;2023-07-29T06:49:23;18.40;99.90
44431;DHT22;30135;47.866;-4.222;2023-07-29T06:51:49;18.40;99.90
44431;DHT22;30135;47.866;-4.222;2023-07-29T06:54:16;18.40;99.90
44431;DHT22;30135;47.866;-4.222;2023-07-29T06:56:42;18.40;99.90
44431;DHT22;30135;47.866;-4.222;2023-07-29T06:59:08;18.40;99.90
44431;DHT22;30135;47.866;-4.222;2023-07-29T07:01:34;18.40;99.90
44431;DHT22;30135;47.866;-4.222;2023-07-29T07:04:00;18.40;99.90
44431;DHT22;30135;47.866;-4.222;2023-07-29T07:06:29;18.50;99.90
44431;DHT22;30135;47.866;-4.222;2023-07-29T07:08:55;18.50;99.90
44431;DHT22;30135;47.866;-4.222;2023-07-29T07:11:21;18.50;99.90
44431;DHT22;30135;47.866;-4.222;2023-07-29T07:13:46;18.50;99.90
44431;DHT22;30135;47.866;-4.222;2023-07-29T07:16:12;18.50;99.90
44431;DHT22;30135;47.866;-4.222;2023-07-29T07:18:38;18.50;99.90
44431;DHT22;30135;47.866;-4.222;2023-07-29T07:21:04;18.60;99.90
44431;DHT22;30135;47.866;-4.222;2023-07-29T07:23:30;18.60;99.90
44431;DHT22;30135;47.866;-4.222;2023-07-29T07:25:56;18.60;99.90
44431;DHT22;30135;47.866;-4.222;2023-07-29T07:28:22;18.60;99.90
44431;DHT22;30135;47.866;-4.222;2023-07-29T07:30:48;18.70;99.90
44431;DHT22;30135;47.866;-4.222;2023-07-29T07:33:14;18.60;99.90
44431;DHT22;30135;47.866;-4.222;2023-07-29T07:35:40;18.70;99.90
44431;DHT22;30135;47.866;-4.222;2023-07-29T07:38:08;18.70;99.90
44431;DHT22;30135;47.866;-4.222;2023-07-29T07:40:35;18.70;99.90
44431;DHT22;30135;47.866;-4.222;2023-07-29T07:43:04;18.80;99.90
44431;DHT22;30135;47.866;-4.222;2023-07-29T07:45:32;18.80;99.90
44431;DHT22;30135;47.866;-4.222;2023-07-29T07:47:59;18.80;99.90
44431;DHT22;30135;47.866;-4.222;2023-07-29T07:50:25;18.80;99.90
44431;DHT22;30135;47.866;-4.222;2023-07-29T07:52:51;18.80;99.90
44431;DHT22;30135;47.866;-4.222;2023-07-29T07:55:17;18.90;99.90
44431;DHT22;30135;47.866;-4.222;2023-07-29T07:57:43;18.90;99.90
44431;DHT22;30135;47.866;-4.222;2023-07-29T08:00:09;18.90;99.90
44431;DHT22;30135;47.866;-4.222;2023-07-29T08:02:35;19.00;99.90
44431;DHT22;30135;47.866;-4.222;2023-07-29T08:05:04;19.00;99.90
44431;DHT22;30135;47.866;-4.222;2023-07-29T08:07:30;19.00;99.90
44431;DHT22;30135;47.866;-4.222;2023-07-29T08:09:56;19.00;99.90
44431;DHT22;30135;47.866;-4.222;2023-07-29T08:12:22;19.10;99.90
44431;DHT22;30135;47.866;-4.222;2023-07-29T08:14:48;19.10;99.90
44431;DHT22;30135;47.866;-4.222;2023-07-29T08:17:14;19.10;99.90
44431;DHT22;30135;47.866;-4.222;2023-07-29T08:19:40;19.10;99.90
44431;DHT22;30135;47.866;-4.222;2023-07-29T08:22:06;19.10;99.90
44431;DHT22;30135;47.866;-4.222;2023-07-29T08:24:32;19.10;99.90
44431;DHT22;30135;47.866;-4.222;2023-07-29T08:26:59;19.20;99.90
44431;DHT22;30135;47.866;-4.222;2023-07-29T08:29:25;19.20;99.90
44431;DHT22;30135;47.866;-4.222;2023-07-29T08:31:51;19.20;99.90
44431;DHT22;30135;47.866;-4.222;2023-07-29T08:34:17;19.30;99.90
44431;DHT22;30135;47.866;-4.222;2023-07-29T08:36:43;19.30;99.90
44431;DHT22;30135;47.866;-4.222;2023-07-29T08:39:09;19.30;99.90
44431;DHT22;30135;47.866;-4.222;2023-07-29T08:42:03;19.30;99.90
44431;DHT22;30135;47.866;-4.222;2023-07-29T08:44:35;19.40;99.90
44431;DHT22;30135;47.866;-4.222;2023-07-29T08:47:06;19.40;99.90
44431;DHT22;30135;47.866;-4.222;2023-07-29T08:49:33;19.40;99.90
44431;DHT22;30135;47.866;-4.222;2023-07-29T08:51:59;19.40;99.90
44431;DHT22;30135;47.866;-4.222;2023-07-29T08:54:29;19.50;99.90
44431;DHT22;30135;47.866;-4.222;2023-07-29T08:56:56;19.50;99.90
44431;DHT22;30135;47.866;-4.222;2023-07-29T08:59:23;19.50;99.90
44431;DHT22;30135;47.866;-4.222;2023-07-29T09:01:49;19.50;99.90
44431;DHT22;30135;47.866;-4.222;2023-07-29T09:04:15;19.60;99.90
44431;DHT22;30135;47.866;-4.222;2023-07-29T09:06:43;19.60;99.90
44431;DHT22;30135;47.866;-4.222;2023-07-29T09:09:10;19.60;99.90
44431;DHT22;30135;47.866;-4.222;2023-07-29T09:11:36;19.70;99.90
44431;DHT22;30135;47.866;-4.222;2023-07-29T09:14:08;19.70;99.90
44431;DHT22;30135;47.866;-4.222;2023-07-29T09:16:35;19.70;99.90
44431;DHT22;30135;47.866;-4.222;2023-07-29T09:19:02;19.70;99.90
44431;DHT22;30135;47.866;-4.222;2023-07-29T09:21:29;19.80;99.90
44431;DHT22;30135;47.866;-4.222;2023-07-29T09:23:55;19.70;99.90
44431;DHT22;30135;47.866;-4.222;2023-07-29T09:26:28;19.80;99.90
44431;DHT22;30135;47.866;-4.222;2023-07-29T09:28:58;19.80;99.90
44431;DHT22;30135;47.866;-4.222;2023-07-29T09:31:26;19.80;99.90
44431;DHT22;30135;47.866;-4.222;2023-07-29T09:34:00;19.80;99.90
44431;DHT22;30135;47.866;-4.222;2023-07-29T09:36:28;19.80;99.90
44431;DHT22;30135;47.866;-4.222;2023-07-29T09:38:56;19.80;99.90
44431;DHT22;30135;47.866;-4.222;2023-07-29T09:41:24;19.80;99.90
44431;DHT22;30135;47.866;-4.222;2023-07-29T09:43:59;19.80;99.90
44431;DHT22;30135;47.866;-4.222;2023-07-29T09:46:33;19.90;99.90
44431;DHT22;30135;47.866;-4.222;2023-07-29T09:49:02;19.90;99.90
44431;DHT22;30135;47.866;-4.222;2023-07-29T09:51:32;19.90;99.90
44431;DHT22;30135;47.866;-4.222;2023-07-29T09:54:03;19.90;99.90
44431;DHT22;30135;47.866;-4.222;2023-07-29T09:56:29;19.90;99.90
44431;DHT22;30135;47.866;-4.222;2023-07-29T09:58:56;19.90;99.90
44431;DHT22;30135;47.866;-4.222;2023-07-29T10:01:23;19.90;99.90
44431;DHT22;30135;47.866;-4.222;2023-07-29T10:03:50;19.90;99.90
44431;DHT22;30135;47.866;-4.222;2023-07-29T10:06:17;19.90;99.90
44431;DHT22;30135;47.866;-4.222;2023-07-29T10:08:45;19.90;99.90
44431;DHT22;30135;47.866;-4.222;2023-07-29T10:11:11;19.90;99.90
44431;DHT22;30135;47.866;-4.222;2023-07-29T10:13:38;19.90;99.90
44431;DHT22;30135;47.866;-4.222;2023-07-29T10:16:07;19.90;99.90
44431;DHT22;30135;47.866;-4.222;2023-07-29T10:18:34;19.90;99.90
44431;DHT22;30135;47.866;-4.222;2023-07-29T10:21:01;19.90;99.90
44431;DHT22;30135;47.866;-4.222;2023-07-29T10:23:30;19.90;99.90
44431;DHT22;30135;47.866;-4.222;2023-07-29T10:26:03;19.90;99.90
44431;DHT22;30135;47.866;-4.222;2023-07-29T10:28:31;20.00;99.90
44431;DHT22;30135;47.866;-4.222;2023-07-29T10:30:59;20.00;99.90
44431;DHT22;30135;47.866;-4.222;2023-07-29T10:33:25;20.10;99.90
44431;DHT22;30135;47.866;-4.222;2023-07-29T10:35:53;20.10;99.90
44431;DHT22;30135;47.866;-4.222;2023-07-29T10:38:24;20.10;99.90
44431;DHT22;30135;47.866;-4.222;2023-07-29T10:43:39;20.00;99.90
44431;DHT22;30135;47.866;-4.222;2023-07-29T10:46:22;20.00;99.90
44431;DHT22;30135;47.866;-4.222;2023-07-29T10:48:56;19.90;99.60
44431;DHT22;30135;47.866;-4.222;2023-07-29T10:51:30;19.90;99.60
44431;DHT22;30135;47.866;-4.222;2023-07-29T10:54:10;19.80;99.60
44431;DHT22;30135;47.866;-4.222;2023-07-29T10:56:46;19.70;99.60
44431;DHT22;30135;47.866;-4.222;2023-07-29T11:01:56;19.70;99.70
44431;DHT22;30135;47.866;-4.222;2023-07-29T11:04:23;19.70;99.70
44431;DHT22;30135;47.866;-4.222;2023-07-29T11:20:10;19.50;99.90
44431;DHT22;30135;47.866;-4.222;2023-07-29T11:22:37;19.50;99.90
44431;DHT22;30135;47.866;-4.222;2023-07-29T11:25:05;19.40;99.90
44431;DHT22;30135;47.866;-4.222;2023-07-29T11:27:32;19.40;99.90
44431;DHT22;30135;47.866;-4.222;2023-07-29T11:30:06;19.40;99.90
44431;DHT22;30135;47.866;-4.222;2023-07-29T11:32:35;19.40;99.90
44431;DHT22;30135;47.866;-4.222;2023-07-29T11:35:06;19.30;99.90
44431;DHT22;30135;47.866;-4.222;2023-07-29T11:37:37;19.30;99.90
44431;DHT22;30135;47.866;-4.222;2023-07-29T11:40:04;19.30;99.90
44431;DHT22;30135;47.866;-4.222;2023-07-29T11:42:35;19.30;99.90
44431;DHT22;30135;47.866;-4.222;2023-07-29T11:45:02;19.20;99.90
44431;DHT22;30135;47.866;-4.222;2023-07-29T11:47:31;19.10;99.90
44431;DHT22;30135;47.866;-4.222;2023-07-29T11:50:00;19.10;99.90
44431;DHT22;30135;47.866;-4.222;2023-07-29T11:52:28;19.10;99.90
44431;DHT22;30135;47.866;-4.222;2023-07-29T11:54:56;19.10;99.90
44431;DHT22;30135;47.866;-4.222;2023-07-29T11:57:23;19.10;99.90
44431;DHT22;30135;47.866;-4.222;2023-07-29T11:59:49;19.00;99.90
44431;DHT22;30135;47.866;-4.222;2023-07-29T12:02:17;19.00;99.90
44431;DHT22;30135;47.866;-4.222;2023-07-29T12:04:47;19.00;99.90
44431;DHT22;30135;47.866;-4.222;2023-07-29T12:07:14;18.90;99.90
44431;DHT22;30135;47.866;-4.222;2023-07-29T12:09:42;18.90;99.90
44431;DHT22;30135;47.866;-4.222;2023-07-29T12:12:09;18.90;99.90
44431;DHT22;30135;47.866;-4.222;2023-07-29T12:14:35;18.90;99.90
44431;DHT22;30135;47.866;-4.222;2023-07-29T12:17:03;18.90;99.90
44431;DHT22;30135;47.866;-4.222;2023-07-29T12:19:35;18.90;99.90
44431;DHT22;30135;47.866;-4.222;2023-07-29T12:22:07;18.80;99.90
44431;DHT22;30135;47.866;-4.222;2023-07-29T12:24:37;18.90;99.90
44431;DHT22;30135;47.866;-4.222;2023-07-29T12:27:04;18.80;99.90
44431;DHT22;30135;47.866;-4.222;2023-07-29T12:29:42;18.80;99.90
44431;DHT22;30135;47.866;-4.222;2023-07-29T12:32:09;18.80;99.90
44431;DHT22;30135;47.866;-4.222;2023-07-29T12:34:37;18.80;99.90
44431;DHT22;30135;47.866;-4.222;2023-07-29T12:37:05;18.80;99.90
44431;DHT22;30135;47.866;-4.222;2023-07-29T12:39:34;18.80;99.90
44431;DHT22;30135;47.866;-4.222;2023-07-29T12:42:02;18.80;99.90
44431;DHT22;30135;47.866;-4.222;2023-07-29T12:44:33;18.80;99.90
44431;DHT22;30135;47.866;-4.222;2023-07-29T12:47:03;18.90;99.90
44431;DHT22;30135;47.866;-4.222;2023-07-29T12:49:30;18.90;99.90
44431;DHT22;30135;47.866;-4.222;2023-07-29T12:51:57;18.90;99.90
44431;DHT22;30135;47.866;-4.222;2023-07-29T12:54:24;18.90;99.90
44431;DHT22;30135;47.866;-4.222;2023-07-29T12:56:51;19.00;99.90
44431;DHT22;30135;47.866;-4.222;2023-07-29T12:59:17;19.00;99.90
44431;DHT22;30135;47.866;-4.222;2023-07-29T13:01:43;19.00;99.90
44431;DHT22;30135;47.866;-4.222;2023-07-29T13:04:12;19.10;99.90
44431;DHT22;30135;47.866;-4.222;2023-07-29T13:06:38;19.10;99.90
44431;DHT22;30135;47.866;-4.222;2023-07-29T13:09:05;19.10;99.90
44431;DHT22;30135;47.866;-4.222;2023-07-29T13:11:31;19.10;99.90
44431;DHT22;30135;47.866;-4.222;2023-07-29T13:13:58;19.10;99.90
44431;DHT22;30135;47.866;-4.222;2023-07-29T13:16:26;19.10;99.90
44431;DHT22;30135;47.866;-4.222;2023-07-29T13:18:53;19.10;99.90
44431;DHT22;30135;47.866;-4.222;2023-07-29T13:21:19;19.10;99.90
44431;DHT22;30135;47.866;-4.222;2023-07-29T13:23:45;19.20;99.90
44431;DHT22;30135;47.866;-4.222;2023-07-29T13:26:11;19.20;99.90
44431;DHT22;30135;47.866;-4.222;2023-07-29T13:28:37;19.20;99.90
44431;DHT22;30135;47.866;-4.222;2023-07-29T13:31:02;19.30;99.90
44431;DHT22;30135;47.866;-4.222;2023-07-29T13:33:28;19.30;99.90
44431;DHT22;30135;47.866;-4.222;2023-07-29T13:35:59;19.30;99.90
44431;DHT22;30135;47.866;-4.222;2023-07-29T13:38:28;19.40;99.90
44431;DHT22;30135;47.866;-4.222;2023-07-29T13:40:54;19.50;99.90
44431;DHT22;30135;47.866;-4.222;2023-07-29T13:43:20;19.50;99.90
44431;DHT22;30135;47.866;-4.222;2023-07-29T13:45:46;19.60;99.90
44431;DHT22;30135;47.866;-4.222;2023-07-29T13:48:14;19.60;99.90
44431;DHT22;30135;47.866;-4.222;2023-07-29T13:50:40;19.60;99.90
44431;DHT22;30135;47.866;-4.222;2023-07-29T13:53:06;19.70;99.90
44431;DHT22;30135;47.866;-4.222;2023-07-29T13:55:33;19.70;99.90
44431;DHT22;30135;47.866;-4.222;2023-07-29T13:57:59;19.70;99.90
44431;DHT22;30135;47.866;-4.222;2023-07-29T14:00:25;19.80;99.90
44431;DHT22;30135;47.866;-4.222;2023-07-29T14:02:51;19.80;99.90
44431;DHT22;30135;47.866;-4.222;2023-07-29T14:05:17;19.90;99.90
44431;DHT22;30135;47.866;-4.222;2023-07-29T14:07:43;19.90;99.90
44431;DHT22;30135;47.866;-4.222;2023-07-29T14:10:09;19.90;99.60
44431;DHT22;30135;47.866;-4.222;2023-07-29T14:12:35;19.80;99.70
44431;DHT22;30135;47.866;-4.222;2023-07-29T14:15:03;19.80;99.40
44431;DHT22;30135;47.866;-4.222;2023-07-29T14:17:29;19.90;99.40
44431;DHT22;30135;47.866;-4.222;2023-07-29T14:19:55;19.80;99.40
44431;DHT22;30135;47.866;-4.222;2023-07-29T14:22:21;19.90;99.20
44431;DHT22;30135;47.866;-4.222;2023-07-29T14:24:47;19.90;99.10
44431;DHT22;30135;47.866;-4.222;2023-07-29T14:27:13;19.90;99.10
44431;DHT22;30135;47.866;-4.222;2023-07-29T14:29:41;19.90;99.00
44431;DHT22;30135;47.866;-4.222;2023-07-29T14:32:07;20.00;98.90
44431;DHT22;30135;47.866;-4.222;2023-07-29T14:34:33;20.00;98.70
44431;DHT22;30135;47.866;-4.222;2023-07-29T14:36:59;20.00;98.30
44431;DHT22;30135;47.866;-4.222;2023-07-29T14:39:25;20.00;97.90
44431;DHT22;30135;47.866;-4.222;2023-07-29T14:41:58;20.00;97.60
44431;DHT22;30135;47.866;-4.222;2023-07-29T14:44:24;20.10;97.40
44431;DHT22;30135;47.866;-4.222;2023-07-29T14:46:50;20.10;97.10
44431;DHT22;30135;47.866;-4.222;2023-07-29T14:49:16;20.10;96.70
44431;DHT22;30135;47.866;-4.222;2023-07-29T14:51:42;20.10;96.30
44431;DHT22;30135;47.866;-4.222;2023-07-29T14:54:08;20.10;95.90
44431;DHT22;30135;47.866;-4.222;2023-07-29T14:56:34;20.10;95.80
44431;DHT22;30135;47.866;-4.222;2023-07-29T14:59:00;20.10;95.50
44431;DHT22;30135;47.866;-4.222;2023-07-29T15:01:26;20.10;95.30
44431;DHT22;30135;47.866;-4.222;2023-07-29T15:03:52;20.10;94.90
44431;DHT22;30135;47.866;-4.222;2023-07-29T15:06:18;20.10;94.70
44431;DHT22;30135;47.866;-4.222;2023-07-29T15:08:44;20.10;94.50
44431;DHT22;30135;47.866;-4.222;2023-07-29T15:11:12;20.10;94.50
44431;DHT22;30135;47.866;-4.222;2023-07-29T15:13:38;20.10;94.40
44431;DHT22;30135;47.866;-4.222;2023-07-29T15:16:05;20.10;94.40
44431;DHT22;30135;47.866;-4.222;2023-07-29T15:18:31;20.10;94.60
44431;DHT22;30135;47.866;-4.222;2023-07-29T15:20:59;20.10;94.60
44431;DHT22;30135;47.866;-4.222;2023-07-29T15:23:28;20.10;94.40
44431;DHT22;30135;47.866;-4.222;2023-07-29T15:25:54;20.10;94.30
44431;DHT22;30135;47.866;-4.222;2023-07-29T15:28:20;20.10;93.80
44431;DHT22;30135;47.866;-4.222;2023-07-29T15:30:46;20.10;93.70
44431;DHT22;30135;47.866;-4.222;2023-07-29T15:33:12;20.10;93.60
44431;DHT22;30135;47.866;-4.222;2023-07-29T15:35:39;20.10;93.40
44431;DHT22;30135;47.866;-4.222;2023-07-29T15:38:06;20.10;93.30
44431;DHT22;30135;47.866;-4.222;2023-07-29T15:40:32;20.10;92.70
44431;DHT22;30135;47.866;-4.222;2023-07-29T15:42:58;20.10;92.40